sensor_id;sensor_type;location;lat;lon;timestamp;P1;durP1;ratioP1;P2;durP2;ratioP2
9240;SDS011;53485;49.326;9.738;2023-04-15T00:00:33;10.03;;;7.83;;
9240;SDS011;53485;49.326;9.738;2023-04-15T00:03:00;12.37;;;8.13;;
9240;SDS011;53485;49.326;9.738;2023-04-15T00:05:28;10.70;;;8.17;;
9240;SDS011;53485;49.326;9.738;2023-04-15T00:07:53;9.43;;;7.47;;
9240;SDS011;53485;49.326;9.738;2023-04-15T00:10:20;11.13;;;7.30;;
9240;SDS011;53485;49.326;9.738;2023-04-15T00:12:46;24.53;;;11.07;;
9240;SDS011;53485;49.326;9.738;2023-04-15T00:15:13;12.00;;;8.87;;
9240;SDS011;53485;49.326;9.738;2023-04-15T00:17:40;11.17;;;8.67;;
9240;SDS011;53485;49.326;9.738;2023-04-15T00:20:06;8.57;;;7.10;;
9240;SDS011;53485;49.326;9.738;2023-04-15T00:22:33;9.60;;;6.83;;
9240;SDS011;53485;49.326;9.738;2023-04-15T00:24:59;10.70;;;7.77;;
9240;SDS011;53485;49.326;9.738;2023-04-15T00:27:25;15.30;;;10.10;;
9240;SDS011;53485;49.326;9.738;2023-04-15T00:29:52;15.27;;;11.07;;
9240;SDS011;53485;49.326;9.738;2023-04-15T00:32:18;17.67;;;12.63;;
9240;SDS011;53485;49.326;9.738;2023-04-15T00:34:45;15.13;;;11.43;;
9240;SDS011;53485;49.326;9.738;2023-04-15T00:37:12;17.53;;;12.87;;
9240;SDS011;53485;49.326;9.738;2023-04-15T00:39:38;18.73;;;14.13;;
9240;SDS011;53485;49.326;9.738;2023-04-15T00:42:04;28.63;;;18.83;;
9240;SDS011;53485;49.326;9.738;2023-04-15T00:44:31;22.20;;;16.03;;
9240;SDS011;53485;49.326;9.738;2023-04-15T00:46:59;19.77;;;13.90;;
9240;SDS011;53485;49.326;9.738;2023-04-15T00:49:23;15.83;;;12.10;;
9240;SDS011;53485;49.326;9.738;2023-04-15T00:51:50;20.57;;;14.00;;
9240;SDS011;53485;49.326;9.738;2023-04-15T00:54:16;17.60;;;12.17;;
9240;SDS011;53485;49.326;9.738;2023-04-15T00:56:42;10.03;;;7.50;;
9240;SDS011;53485;49.326;9.738;2023-04-15T00:59:09;11.37;;;9.37;;
9240;SDS011;53485;49.326;9.738;2023-04-15T01:01:35;8.10;;;6.40;;
9240;SDS011;53485;49.326;9.738;2023-04-15T01:04:02;5.87;;;3.83;;
9240;SDS011;53485;49.326;9.738;2023-04-15T01:06:28;4.43;;;3.50;;
9240;SDS011;53485;49.326;9.738;2023-04-15T01:08:54;3.50;;;2.83;;
9240;SDS011;53485;49.326;9.738;2023-04-15T01:11:20;4.73;;;2.83;;
9240;SDS011;53485;49.326;9.738;2023-04-15T01:13:47;3.30;;;2.97;;
9240;SDS011;53485;49.326;9.738;2023-04-15T01:16:13;7.87;;;4.60;;
9240;SDS011;53485;49.326;9.738;2023-04-15T01:18:40;8.60;;;3.33;;
9240;SDS011;53485;49.326;9.738;2023-04-15T01:21:06;4.63;;;3.43;;
9240;SDS011;53485;49.326;9.738;2023-04-15T01:23:34;2.90;;;1.90;;
9240;SDS011;53485;49.326;9.738;2023-04-15T01:25:59;2.40;;;2.07;;
9240;SDS011;53485;49.326;9.738;2023-04-15T01:28:25;2.97;;;2.37;;
9240;SDS011;53485;49.326;9.738;2023-04-15T01:33:24;2.77;;;2.57;;
9240;SDS011;53485;49.326;9.738;2023-04-15T01:35:50;3.20;;;2.03;;
9240;SDS011;53485;49.326;9.738;2023-04-15T01:38:17;4.73;;;2.57;;
9240;SDS011;53485;49.326;9.738;2023-04-15T01:40:43;4.70;;;3.20;;
9240;SDS011;53485;49.326;9.738;2023-04-15T01:43:10;2.90;;;2.60;;
9240;SDS011;53485;49.326;9.738;2023-04-15T01:45:36;5.17;;;2.70;;
9240;SDS011;53485;49.326;9.738;2023-04-15T01:48:03;5.67;;;2.83;;
9240;SDS011;53485;49.326;9.738;2023-04-15T01:50:29;3.43;;;2.80;;
9240;SDS011;53485;49.326;9.738;2023-04-15T01:52:56;3.37;;;3.07;;
9240;SDS011;53485;49.326;9.738;2023-04-15T01:55:23;3.57;;;3.23;;
9240;SDS011;53485;49.326;9.738;2023-04-15T01:57:49;6.07;;;3.93;;
9240;SDS011;53485;49.326;9.738;2023-04-15T02:00:16;6.23;;;4.00;;
9240;SDS011;53485;49.326;9.738;2023-04-15T02:02:42;7.53;;;5.00;;
9240;SDS011;53485;49.326;9.738;2023-04-15T02:05:09;5.23;;;4.70;;
9240;SDS011;53485;49.326;9.738;2023-04-15T02:07:36;5.90;;;4.13;;
9240;SDS011;53485;49.326;9.738;2023-04-15T02:10:02;5.43;;;3.97;;
9240;SDS011;53485;49.326;9.738;2023-04-15T02:12:29;4.57;;;3.70;;
9240;SDS011;53485;49.326;9.738;2023-04-15T02:14:55;4.73;;;3.77;;
9240;SDS011;53485;49.326;9.738;2023-04-15T02:17:22;4.23;;;3.83;;
9240;SDS011;53485;49.326;9.738;2023-04-15T02:19:49;6.03;;;4.97;;
9240;SDS011;53485;49.326;9.738;2023-04-15T02:22:15;4.07;;;3.67;;
9240;SDS011;53485;49.326;9.738;2023-04-15T02:24:42;4.90;;;3.50;;
9240;SDS011;53485;49.326;9.738;2023-04-15T02:27:08;4.83;;;4.30;;
9240;SDS011;53485;49.326;9.738;2023-04-15T02:29:34;3.50;;;3.20;;
9240;SDS011;53485;49.326;9.738;2023-04-15T02:32:01;4.27;;;3.67;;
9240;SDS011;53485;49.326;9.738;2023-04-15T02:34:28;8.33;;;3.87;;
9240;SDS011;53485;49.326;9.738;2023-04-15T02:36:54;5.00;;;3.60;;
9240;SDS011;53485;49.326;9.738;2023-04-15T02:39:21;4.97;;;3.97;;
9240;SDS011;53485;49.326;9.738;2023-04-15T02:41:48;3.70;;;3.27;;
9240;SDS011;53485;49.326;9.738;2023-04-15T02:44:13;3.63;;;3.33;;
9240;SDS011;53485;49.326;9.738;2023-04-15T02:46:40;5.43;;;4.00;;
9240;SDS011;53485;49.326;9.738;2023-04-15T02:49:06;4.87;;;3.97;;
9240;SDS011;53485;49.326;9.738;2023-04-15T02:51:33;4.23;;;3.87;;
9240;SDS011;53485;49.326;9.738;2023-04-15T02:53:59;4.27;;;3.60;;
9240;SDS011;53485;49.326;9.738;2023-04-15T02:56:26;6.77;;;4.33;;
9240;SDS011;53485;49.326;9.738;2023-04-15T02:58:52;5.57;;;4.13;;
9240;SDS011;53485;49.326;9.738;2023-04-15T03:01:19;4.30;;;3.90;;
9240;SDS011;53485;49.326;9.738;2023-04-15T03:03:46;4.53;;;4.10;;
9240;SDS011;53485;49.326;9.738;2023-04-15T03:06:12;7.43;;;4.03;;
9240;SDS011;53485;49.326;9.738;2023-04-15T03:08:38;6.10;;;4.40;;
9240;SDS011;53485;49.326;9.738;2023-04-15T03:11:05;5.00;;;4.00;;
9240;SDS011;53485;49.326;9.738;2023-04-15T03:13:31;4.10;;;3.70;;
9240;SDS011;53485;49.326;9.738;2023-04-15T03:15:58;5.03;;;3.93;;
9240;SDS011;53485;49.326;9.738;2023-04-15T03:18:24;6.87;;;3.67;;
9240;SDS011;53485;49.326;9.738;2023-04-15T03:20:51;5.10;;;4.33;;
9240;SDS011;53485;49.326;9.738;2023-04-15T03:23:18;5.83;;;3.60;;
9240;SDS011;53485;49.326;9.738;2023-04-15T03:25:44;6.77;;;5.07;;
9240;SDS011;53485;49.326;9.738;2023-04-15T03:28:11;7.97;;;5.00;;
9240;SDS011;53485;49.326;9.738;2023-04-15T03:30:38;6.40;;;5.33;;
9240;SDS011;53485;49.326;9.738;2023-04-15T03:33:04;6.13;;;4.97;;
9240;SDS011;53485;49.326;9.738;2023-04-15T03:35:31;5.60;;;5.00;;
9240;SDS011;53485;49.326;9.738;2023-04-15T03:37:57;7.93;;;5.13;;
9240;SDS011;53485;49.326;9.738;2023-04-15T03:40:24;6.53;;;4.80;;
9240;SDS011;53485;49.326;9.738;2023-04-15T03:42:51;5.63;;;4.60;;
9240;SDS011;53485;49.326;9.738;2023-04-15T03:45:17;6.43;;;5.17;;
9240;SDS011;53485;49.326;9.738;2023-04-15T03:47:44;6.73;;;4.80;;
9240;SDS011;53485;49.326;9.738;2023-04-15T03:50:10;5.17;;;4.33;;
9240;SDS011;53485;49.326;9.738;2023-04-15T03:52:37;6.00;;;5.40;;
9240;SDS011;53485;49.326;9.738;2023-04-15T03:55:03;4.77;;;4.13;;
9240;SDS011;53485;49.326;9.738;2023-04-15T03:57:30;6.23;;;3.80;;
9240;SDS011;53485;49.326;9.738;2023-04-15T03:59:57;5.33;;;4.30;;
9240;SDS011;53485;49.326;9.738;2023-04-15T04:02:23;6.27;;;4.20;;
9240;SDS011;53485;49.326;9.738;2023-04-15T04:04:50;7.40;;;5.10;;
9240;SDS011;53485;49.326;9.738;2023-04-15T04:07:17;5.70;;;3.70;;
9240;SDS011;53485;49.326;9.738;2023-04-15T04:09:44;8.00;;;4.83;;
9240;SDS011;53485;49.326;9.738;2023-04-15T04:12:10;6.77;;;4.73;;
9240;SDS011;53485;49.326;9.738;2023-04-15T04:14:37;6.17;;;4.30;;
9240;SDS011;53485;49.326;9.738;2023-04-15T04:17:04;6.87;;;4.83;;
9240;SDS011;53485;49.326;9.738;2023-04-15T04:19:30;4.10;;;3.70;;
9240;SDS011;53485;49.326;9.738;2023-04-15T04:21:56;5.03;;;4.13;;
9240;SDS011;53485;49.326;9.738;2023-04-15T04:24:23;8.03;;;4.50;;
9240;SDS011;53485;49.326;9.738;2023-04-15T04:26:50;4.60;;;4.20;;
9240;SDS011;53485;49.326;9.738;2023-04-15T04:29:16;3.63;;;3.33;;
9240;SDS011;53485;49.326;9.738;2023-04-15T04:31:43;5.60;;;4.77;;
9240;SDS011;53485;49.326;9.738;2023-04-15T04:34:09;5.10;;;4.60;;
9240;SDS011;53485;49.326;9.738;2023-04-15T04:36:36;6.53;;;5.17;;
9240;SDS011;53485;49.326;9.738;2023-04-15T04:39:02;5.53;;;3.43;;
9240;SDS011;53485;49.326;9.738;2023-04-15T04:41:29;6.20;;;4.03;;
9240;SDS011;53485;49.326;9.738;2023-04-15T04:43:55;5.20;;;3.90;;
9240;SDS011;53485;49.326;9.738;2023-04-15T04:46:22;5.73;;;3.30;;
9240;SDS011;53485;49.326;9.738;2023-04-15T04:48:49;5.97;;;4.40;;
9240;SDS011;53485;49.326;9.738;2023-04-15T04:51:15;7.67;;;4.00;;
9240;SDS011;53485;49.326;9.738;2023-04-15T04:53:42;5.87;;;4.40;;
9240;SDS011;53485;49.326;9.738;2023-04-15T04:56:08;5.43;;;3.97;;
9240;SDS011;53485;49.326;9.738;2023-04-15T04:58:35;5.70;;;3.43;;
9240;SDS011;53485;49.326;9.738;2023-04-15T05:01:01;4.07;;;3.30;;
9240;SDS011;53485;49.326;9.738;2023-04-15T05:03:27;5.00;;;3.63;;
9240;SDS011;53485;49.326;9.738;2023-04-15T05:05:54;6.10;;;3.60;;
9240;SDS011;53485;49.326;9.738;2023-04-15T05:08:20;4.63;;;3.33;;
9240;SDS011;53485;49.326;9.738;2023-04-15T05:10:47;4.23;;;3.47;;
9240;SDS011;53485;49.326;9.738;2023-04-15T05:13:14;5.73;;;4.53;;
9240;SDS011;53485;49.326;9.738;2023-04-15T05:15:40;6.63;;;4.27;;
9240;SDS011;53485;49.326;9.738;2023-04-15T05:18:07;8.93;;;5.10;;
9240;SDS011;53485;49.326;9.738;2023-04-15T05:20:33;7.43;;;4.13;;
9240;SDS011;53485;49.326;9.738;2023-04-15T05:23:00;4.93;;;4.50;;
9240;SDS011;53485;49.326;9.738;2023-04-15T05:25:26;4.43;;;3.90;;
9240;SDS011;53485;49.326;9.738;2023-04-15T05:27:52;6.93;;;4.53;;
9240;SDS011;53485;49.326;9.738;2023-04-15T05:30:19;4.40;;;4.00;;
9240;SDS011;53485;49.326;9.738;2023-04-15T05:32:46;6.70;;;3.73;;
9240;SDS011;53485;49.326;9.738;2023-04-15T05:35:12;6.27;;;4.23;;
9240;SDS011;53485;49.326;9.738;2023-04-15T05:37:39;6.60;;;3.77;;
9240;SDS011;53485;49.326;9.738;2023-04-15T05:40:05;5.33;;;3.70;;
9240;SDS011;53485;49.326;9.738;2023-04-15T05:42:32;7.03;;;4.20;;
9240;SDS011;53485;49.326;9.738;2023-04-15T05:44:59;5.40;;;3.77;;
9240;SDS011;53485;49.326;9.738;2023-04-15T05:47:25;4.67;;;3.83;;
9240;SDS011;53485;49.326;9.738;2023-04-15T05:49:52;5.00;;;4.47;;
9240;SDS011;53485;49.326;9.738;2023-04-15T05:52:18;7.07;;;4.17;;
9240;SDS011;53485;49.326;9.738;2023-04-15T05:54:45;7.73;;;4.23;;
9240;SDS011;53485;49.326;9.738;2023-04-15T05:57:11;5.43;;;4.23;;
9240;SDS011;53485;49.326;9.738;2023-04-15T05:59:38;6.53;;;4.10;;
9240;SDS011;53485;49.326;9.738;2023-04-15T06:02:04;4.40;;;3.70;;
9240;SDS011;53485;49.326;9.738;2023-04-15T06:04:31;5.73;;;3.87;;
9240;SDS011;53485;49.326;9.738;2023-04-15T06:06:57;5.77;;;4.17;;
9240;SDS011;53485;49.326;9.738;2023-04-15T06:09:24;4.93;;;4.23;;
9240;SDS011;53485;49.326;9.738;2023-04-15T06:11:50;6.30;;;4.37;;
9240;SDS011;53485;49.326;9.738;2023-04-15T06:14:17;4.30;;;3.80;;
9240;SDS011;53485;49.326;9.738;2023-04-15T06:16:43;6.20;;;4.57;;
9240;SDS011;53485;49.326;9.738;2023-04-15T06:19:10;5.73;;;4.40;;
9240;SDS011;53485;49.326;9.738;2023-04-15T06:21:37;5.83;;;3.73;;
9240;SDS011;53485;49.326;9.738;2023-04-15T06:24:03;6.17;;;5.03;;
9240;SDS011;53485;49.326;9.738;2023-04-15T06:26:30;6.03;;;4.57;;
9240;SDS011;53485;49.326;9.738;2023-04-15T06:28:56;5.40;;;4.43;;
9240;SDS011;53485;49.326;9.738;2023-04-15T06:31:23;5.80;;;4.73;;
9240;SDS011;53485;49.326;9.738;2023-04-15T06:33:50;6.10;;;4.13;;
9240;SDS011;53485;49.326;9.738;2023-04-15T06:36:16;9.73;;;5.73;;
9240;SDS011;53485;49.326;9.738;2023-04-15T06:38:43;6.93;;;5.40;;
9240;SDS011;53485;49.326;9.738;2023-04-15T06:41:09;5.20;;;4.33;;
9240;SDS011;53485;49.326;9.738;2023-04-15T06:43:36;6.83;;;4.87;;
9240;SDS011;53485;49.326;9.738;2023-04-15T06:46:02;8.77;;;5.23;;
9240;SDS011;53485;49.326;9.738;2023-04-15T06:48:29;6.97;;;5.03;;
9240;SDS011;53485;49.326;9.738;2023-04-15T06:50:56;7.73;;;4.73;;
9240;SDS011;53485;49.326;9.738;2023-04-15T06:53:23;6.03;;;4.83;;
9240;SDS011;53485;49.326;9.738;2023-04-15T06:55:48;7.27;;;4.70;;
9240;SDS011;53485;49.326;9.738;2023-04-15T06:58:15;5.90;;;4.70;;
9240;SDS011;53485;49.326;9.738;2023-04-15T07:00:41;11.10;;;5.50;;
9240;SDS011;53485;49.326;9.738;2023-04-15T07:03:08;4.30;;;3.87;;
9240;SDS011;53485;49.326;9.738;2023-04-15T07:05:34;7.90;;;4.70;;
9240;SDS011;53485;49.326;9.738;2023-04-15T07:08:01;5.70;;;4.57;;
9240;SDS011;53485;49.326;9.738;2023-04-15T07:10:27;8.00;;;4.40;;
9240;SDS011;53485;49.326;9.738;2023-04-15T07:12:54;6.27;;;4.80;;
9240;SDS011;53485;49.326;9.738;2023-04-15T07:15:20;5.70;;;4.17;;
9240;SDS011;53485;49.326;9.738;2023-04-15T07:17:47;5.77;;;4.33;;
9240;SDS011;53485;49.326;9.738;2023-04-15T07:20:13;5.50;;;4.07;;
9240;SDS011;53485;49.326;9.738;2023-04-15T07:22:40;5.03;;;3.67;;
9240;SDS011;53485;49.326;9.738;2023-04-15T07:25:07;4.40;;;3.33;;
9240;SDS011;53485;49.326;9.738;2023-04-15T07:27:34;5.90;;;3.67;;
9240;SDS011;53485;49.326;9.738;2023-04-15T07:30:00;4.87;;;3.73;;
9240;SDS011;53485;49.326;9.738;2023-04-15T07:32:26;5.93;;;4.67;;
9240;SDS011;53485;49.326;9.738;2023-04-15T07:34:53;5.60;;;4.30;;
9240;SDS011;53485;49.326;9.738;2023-04-15T07:37:19;4.40;;;3.93;;
9240;SDS011;53485;49.326;9.738;2023-04-15T07:39:46;3.90;;;3.60;;
9240;SDS011;53485;49.326;9.738;2023-04-15T07:42:13;3.67;;;3.37;;
9240;SDS011;53485;49.326;9.738;2023-04-15T07:44:39;5.20;;;3.63;;
9240;SDS011;53485;49.326;9.738;2023-04-15T07:47:05;3.97;;;3.23;;
9240;SDS011;53485;49.326;9.738;2023-04-15T07:49:32;5.37;;;4.23;;
9240;SDS011;53485;49.326;9.738;2023-04-15T07:51:58;6.13;;;3.93;;
9240;SDS011;53485;49.326;9.738;2023-04-15T07:54:25;4.53;;;3.60;;
9240;SDS011;53485;49.326;9.738;2023-04-15T07:56:52;8.37;;;4.10;;
9240;SDS011;53485;49.326;9.738;2023-04-15T07:59:18;3.90;;;3.60;;
9240;SDS011;53485;49.326;9.738;2023-04-15T08:01:44;3.83;;;3.50;;
9240;SDS011;53485;49.326;9.738;2023-04-15T08:04:11;5.97;;;3.90;;
9240;SDS011;53485;49.326;9.738;2023-04-15T08:06:38;5.33;;;4.30;;
9240;SDS011;53485;49.326;9.738;2023-04-15T08:09:05;3.63;;;3.30;;
9240;SDS011;53485;49.326;9.738;2023-04-15T08:11:30;7.07;;;4.23;;
9240;SDS011;53485;49.326;9.738;2023-04-15T08:13:57;7.23;;;4.60;;
9240;SDS011;53485;49.326;9.738;2023-04-15T08:16:24;3.33;;;3.00;;
9240;SDS011;53485;49.326;9.738;2023-04-15T08:18:50;5.73;;;3.40;;
9240;SDS011;53485;49.326;9.738;2023-04-15T08:21:17;4.03;;;3.30;;
9240;SDS011;53485;49.326;9.738;2023-04-15T08:23:43;3.20;;;2.67;;
9240;SDS011;53485;49.326;9.738;2023-04-15T08:26:09;3.80;;;2.93;;
9240;SDS011;53485;49.326;9.738;2023-04-15T08:28:37;4.53;;;2.93;;
9240;SDS011;53485;49.326;9.738;2023-04-15T08:31:01;3.67;;;3.37;;
9240;SDS011;53485;49.326;9.738;2023-04-15T08:33:28;3.13;;;2.67;;
9240;SDS011;53485;49.326;9.738;2023-04-15T08:35:54;2.67;;;2.47;;
9240;SDS011;53485;49.326;9.738;2023-04-15T08:38:21;4.57;;;3.03;;
9240;SDS011;53485;49.326;9.738;2023-04-15T08:40:48;4.03;;;3.10;;
9240;SDS011;53485;49.326;9.738;2023-04-15T08:43:17;5.60;;;3.93;;
9240;SDS011;53485;49.326;9.738;2023-04-15T08:45:40;4.60;;;2.90;;
9240;SDS011;53485;49.326;9.738;2023-04-15T08:48:06;4.27;;;3.07;;
9240;SDS011;53485;49.326;9.738;2023-04-15T08:50:32;7.30;;;3.43;;
9240;SDS011;53485;49.326;9.738;2023-04-15T08:52:59;3.97;;;3.20;;
9240;SDS011;53485;49.326;9.738;2023-04-15T08:55:26;6.00;;;3.33;;
9240;SDS011;53485;49.326;9.738;2023-04-15T08:57:51;5.70;;;3.97;;
9240;SDS011;53485;49.326;9.738;2023-04-15T09:00:18;5.67;;;4.50;;
9240;SDS011;53485;49.326;9.738;2023-04-15T09:02:45;4.97;;;4.23;;
9240;SDS011;53485;49.326;9.738;2023-04-15T09:05:11;4.07;;;3.40;;
9240;SDS011;53485;49.326;9.738;2023-04-15T09:07:38;4.13;;;3.63;;
9240;SDS011;53485;49.326;9.738;2023-04-15T09:10:04;3.67;;;3.03;;
9240;SDS011;53485;49.326;9.738;2023-04-15T09:12:33;7.27;;;6.53;;
9240;SDS011;53485;49.326;9.738;2023-04-15T09:14:57;3.70;;;3.40;;
9240;SDS011;53485;49.326;9.738;2023-04-15T09:17:23;3.93;;;3.53;;
9240;SDS011;53485;49.326;9.738;2023-04-15T09:19:58;5.07;;;4.40;;
9240;SDS011;53485;49.326;9.738;2023-04-15T09:22:16;3.60;;;2.73;;
9240;SDS011;53485;49.326;9.738;2023-04-15T09:24:43;4.00;;;3.50;;
9240;SDS011;53485;49.326;9.738;2023-04-15T09:27:09;3.70;;;3.37;;
9240;SDS011;53485;49.326;9.738;2023-04-15T09:29:36;8.97;;;4.80;;
9240;SDS011;53485;49.326;9.738;2023-04-15T09:32:08;5.37;;;3.70;;
9240;SDS011;53485;49.326;9.738;2023-04-15T09:34:34;3.63;;;3.33;;
9240;SDS011;53485;49.326;9.738;2023-04-15T09:37:00;5.33;;;3.77;;
9240;SDS011;53485;49.326;9.738;2023-04-15T09:39:27;3.40;;;3.07;;
9240;SDS011;53485;49.326;9.738;2023-04-15T09:44:25;4.53;;;3.57;;
9240;SDS011;53485;49.326;9.738;2023-04-15T09:46:51;4.60;;;3.50;;
9240;SDS011;53485;49.326;9.738;2023-04-15T09:49:18;3.70;;;2.87;;
9240;SDS011;53485;49.326;9.738;2023-04-15T09:51:44;3.30;;;2.73;;
9240;SDS011;53485;49.326;9.738;2023-04-15T09:54:11;2.23;;;2.13;;
9240;SDS011;53485;49.326;9.738;2023-04-15T09:56:37;2.87;;;2.30;;
9240;SDS011;53485;49.326;9.738;2023-04-15T09:59:04;2.30;;;1.50;;
9240;SDS011;53485;49.326;9.738;2023-04-15T10:01:30;3.43;;;1.90;;
9240;SDS011;53485;49.326;9.738;2023-04-15T10:03:57;2.10;;;1.83;;
9240;SDS011;53485;49.326;9.738;2023-04-15T10:06:24;3.50;;;1.97;;
9240;SDS011;53485;49.326;9.738;2023-04-15T10:08:49;2.93;;;1.70;;
9240;SDS011;53485;49.326;9.738;2023-04-15T10:11:16;1.77;;;1.47;;
9240;SDS011;53485;49.326;9.738;2023-04-15T10:13:42;3.03;;;1.53;;
9240;SDS011;53485;49.326;9.738;2023-04-15T10:16:11;4.17;;;3.10;;
9240;SDS011;53485;49.326;9.738;2023-04-15T10:18:37;4.30;;;2.00;;
9240;SDS011;53485;49.326;9.738;2023-04-15T10:21:03;2.10;;;1.60;;
9240;SDS011;53485;49.326;9.738;2023-04-15T10:23:29;1.67;;;1.57;;
9240;SDS011;53485;49.326;9.738;2023-04-15T10:25:56;1.10;;;1.10;;
9240;SDS011;53485;49.326;9.738;2023-04-15T10:28:22;2.67;;;1.13;;
9240;SDS011;53485;49.326;9.738;2023-04-15T10:30:48;2.23;;;1.10;;
9240;SDS011;53485;49.326;9.738;2023-04-15T10:33:17;2.03;;;1.60;;
9240;SDS011;53485;49.326;9.738;2023-04-15T10:35:42;3.47;;;1.20;;
9240;SDS011;53485;49.326;9.738;2023-04-15T10:40:40;1.73;;;1.30;;
9240;SDS011;53485;49.326;9.738;2023-04-15T10:43:07;2.83;;;1.20;;
9240;SDS011;53485;49.326;9.738;2023-04-15T10:45:34;1.67;;;1.50;;
9240;SDS011;53485;49.326;9.738;2023-04-15T10:48:01;1.93;;;1.10;;
9240;SDS011;53485;49.326;9.738;2023-04-15T10:50:26;2.77;;;1.20;;
9240;SDS011;53485;49.326;9.738;2023-04-15T10:52:52;2.53;;;1.63;;
9240;SDS011;53485;49.326;9.738;2023-04-15T10:55:19;5.80;;;1.57;;
9240;SDS011;53485;49.326;9.738;2023-04-15T10:57:45;5.03;;;2.03;;
9240;SDS011;53485;49.326;9.738;2023-04-15T11:00:14;3.03;;;1.63;;
9240;SDS011;53485;49.326;9.738;2023-04-15T11:02:41;2.10;;;1.30;;
9240;SDS011;53485;49.326;9.738;2023-04-15T11:05:07;1.77;;;1.43;;
9240;SDS011;53485;49.326;9.738;2023-04-15T11:07:35;2.37;;;1.30;;
9240;SDS011;53485;49.326;9.738;2023-04-15T11:09:59;1.23;;;1.13;;
9240;SDS011;53485;49.326;9.738;2023-04-15T11:12:33;1.30;;;1.10;;
9240;SDS011;53485;49.326;9.738;2023-04-15T11:15:23;1.67;;;0.93;;
9240;SDS011;53485;49.326;9.738;2023-04-15T11:17:27;1.33;;;0.90;;
9240;SDS011;53485;49.326;9.738;2023-04-15T11:19:53;1.10;;;0.90;;
9240;SDS011;53485;49.326;9.738;2023-04-15T11:22:19;3.33;;;1.00;;
9240;SDS011;53485;49.326;9.738;2023-04-15T11:24:46;1.83;;;1.30;;
9240;SDS011;53485;49.326;9.738;2023-04-15T11:29:44;1.97;;;1.20;;
9240;SDS011;53485;49.326;9.738;2023-04-15T11:32:11;2.07;;;1.17;;
9240;SDS011;53485;49.326;9.738;2023-04-15T11:34:38;1.60;;;0.80;;
9240;SDS011;53485;49.326;9.738;2023-04-15T11:37:05;3.00;;;0.80;;
9240;SDS011;53485;49.326;9.738;2023-04-15T11:39:31;1.80;;;0.90;;
9240;SDS011;53485;49.326;9.738;2023-04-15T11:41:57;2.67;;;1.00;;
9240;SDS011;53485;49.326;9.738;2023-04-15T11:44:23;2.90;;;0.90;;
9240;SDS011;53485;49.326;9.738;2023-04-15T11:46:50;1.63;;;0.80;;
9240;SDS011;53485;49.326;9.738;2023-04-15T11:51:49;1.87;;;0.93;;
9240;SDS011;53485;49.326;9.738;2023-04-15T11:54:17;1.00;;;0.73;;
9240;SDS011;53485;49.326;9.738;2023-04-15T11:56:41;3.30;;;0.90;;
9240;SDS011;53485;49.326;9.738;2023-04-15T11:59:08;2.93;;;0.80;;
9240;SDS011;53485;49.326;9.738;2023-04-15T12:01:35;2.57;;;0.80;;
9240;SDS011;53485;49.326;9.738;2023-04-15T12:04:00;3.13;;;1.10;;
9240;SDS011;53485;49.326;9.738;2023-04-15T12:06:30;1.00;;;0.80;;
9240;SDS011;53485;49.326;9.738;2023-04-15T12:09:03;1.67;;;0.70;;
9240;SDS011;53485;49.326;9.738;2023-04-15T12:11:30;1.67;;;0.83;;
9240;SDS011;53485;49.326;9.738;2023-04-15T12:13:57;2.13;;;0.60;;
9240;SDS011;53485;49.326;9.738;2023-04-15T12:16:23;0.70;;;0.63;;
9240;SDS011;53485;49.326;9.738;2023-04-15T12:18:50;2.40;;;0.77;;
9240;SDS011;53485;49.326;9.738;2023-04-15T12:21:19;3.47;;;2.43;;
9240;SDS011;53485;49.326;9.738;2023-04-15T12:23:48;2.50;;;0.70;;
9240;SDS011;53485;49.326;9.738;2023-04-15T12:26:13;1.00;;;0.90;;
9240;SDS011;53485;49.326;9.738;2023-04-15T12:28:40;1.17;;;0.87;;
9240;SDS011;53485;49.326;9.738;2023-04-15T12:31:07;1.63;;;0.97;;
9240;SDS011;53485;49.326;9.738;2023-04-15T12:33:33;1.27;;;0.60;;
9240;SDS011;53485;49.326;9.738;2023-04-15T12:35:59;0.50;;;0.50;;
9240;SDS011;53485;49.326;9.738;2023-04-15T12:38:26;0.77;;;0.53;;
9240;SDS011;53485;49.326;9.738;2023-04-15T12:40:52;1.50;;;0.70;;
9240;SDS011;53485;49.326;9.738;2023-04-15T12:43:18;1.13;;;0.90;;
9240;SDS011;53485;49.326;9.738;2023-04-15T12:45:44;0.60;;;0.60;;
9240;SDS011;53485;49.326;9.738;2023-04-15T12:48:10;0.80;;;0.73;;
9240;SDS011;53485;49.326;9.738;2023-04-15T12:50:37;1.70;;;0.80;;
9240;SDS011;53485;49.326;9.738;2023-04-15T12:53:03;0.80;;;0.80;;
9240;SDS011;53485;49.326;9.738;2023-04-15T12:55:30;1.83;;;0.70;;
9240;SDS011;53485;49.326;9.738;2023-04-15T12:57:56;1.83;;;0.90;;
9240;SDS011;53485;49.326;9.738;2023-04-15T13:00:23;2.10;;;0.80;;
9240;SDS011;53485;49.326;9.738;2023-04-15T13:02:50;1.43;;;0.70;;
9240;SDS011;53485;49.326;9.738;2023-04-15T13:05:16;0.90;;;0.70;;
9240;SDS011;53485;49.326;9.738;2023-04-15T13:07:43;3.23;;;0.80;;
9240;SDS011;53485;49.326;9.738;2023-04-15T13:10:09;1.20;;;0.90;;
9240;SDS011;53485;49.326;9.738;2023-04-15T13:12:36;1.00;;;0.90;;
9240;SDS011;53485;49.326;9.738;2023-04-15T13:15:02;2.03;;;0.90;;
9240;SDS011;53485;49.326;9.738;2023-04-15T13:17:28;1.33;;;0.70;;
9240;SDS011;53485;49.326;9.738;2023-04-15T13:19:55;1.10;;;0.90;;
9240;SDS011;53485;49.326;9.738;2023-04-15T13:22:21;2.23;;;1.00;;
9240;SDS011;53485;49.326;9.738;2023-04-15T13:24:48;0.90;;;0.90;;
9240;SDS011;53485;49.326;9.738;2023-04-15T13:27:14;2.10;;;0.77;;
9240;SDS011;53485;49.326;9.738;2023-04-15T13:29:41;0.80;;;0.80;;
9240;SDS011;53485;49.326;9.738;2023-04-15T13:32:08;1.73;;;1.07;;
9240;SDS011;53485;49.326;9.738;2023-04-15T13:34:34;1.10;;;1.00;;
9240;SDS011;53485;49.326;9.738;2023-04-15T13:37:06;1.03;;;1.00;;
9240;SDS011;53485;49.326;9.738;2023-04-15T13:39:31;1.43;;;0.90;;
9240;SDS011;53485;49.326;9.738;2023-04-15T13:41:58;2.33;;;1.00;;
9240;SDS011;53485;49.326;9.738;2023-04-15T13:44:24;2.03;;;1.10;;
9240;SDS011;53485;49.326;9.738;2023-04-15T13:46:51;1.20;;;0.80;;
9240;SDS011;53485;49.326;9.738;2023-04-15T13:49:17;1.87;;;0.90;;
9240;SDS011;53485;49.326;9.738;2023-04-15T13:51:44;1.10;;;1.00;;
9240;SDS011;53485;49.326;9.738;2023-04-15T13:54:10;1.53;;;1.00;;
9240;SDS011;53485;49.326;9.738;2023-04-15T13:56:37;1.43;;;1.00;;
9240;SDS011;53485;49.326;9.738;2023-04-15T13:59:03;1.77;;;1.10;;
9240;SDS011;53485;49.326;9.738;2023-04-15T14:01:30;1.63;;;1.10;;
9240;SDS011;53485;49.326;9.738;2023-04-15T14:03:56;1.10;;;1.00;;
9240;SDS011;53485;49.326;9.738;2023-04-15T14:06:23;0.90;;;0.90;;
9240;SDS011;53485;49.326;9.738;2023-04-15T14:08:49;1.00;;;0.90;;
9240;SDS011;53485;49.326;9.738;2023-04-15T14:11:16;1.10;;;0.90;;
9240;SDS011;53485;49.326;9.738;2023-04-15T14:13:43;2.03;;;0.90;;
9240;SDS011;53485;49.326;9.738;2023-04-15T14:16:09;2.17;;;1.00;;
9240;SDS011;53485;49.326;9.738;2023-04-15T14:18:35;0.80;;;0.80;;
9240;SDS011;53485;49.326;9.738;2023-04-15T14:21:02;1.37;;;1.07;;
9240;SDS011;53485;49.326;9.738;2023-04-15T14:23:29;0.80;;;0.77;;
9240;SDS011;53485;49.326;9.738;2023-04-15T14:25:55;2.03;;;1.40;;
9240;SDS011;53485;49.326;9.738;2023-04-15T14:28:23;0.80;;;0.80;;
9240;SDS011;53485;49.326;9.738;2023-04-15T14:30:48;1.53;;;1.20;;
9240;SDS011;53485;49.326;9.738;2023-04-15T14:33:15;1.53;;;1.30;;
9240;SDS011;53485;49.326;9.738;2023-04-15T14:35:41;0.80;;;0.80;;
9240;SDS011;53485;49.326;9.738;2023-04-15T14:38:08;1.57;;;1.10;;
9240;SDS011;53485;49.326;9.738;2023-04-15T14:40:35;0.70;;;0.60;;
9240;SDS011;53485;49.326;9.738;2023-04-15T14:43:01;0.67;;;0.60;;
9240;SDS011;53485;49.326;9.738;2023-04-15T14:45:27;0.57;;;0.57;;
9240;SDS011;53485;49.326;9.738;2023-04-15T14:47:53;1.57;;;0.50;;
9240;SDS011;53485;49.326;9.738;2023-04-15T14:50:20;0.43;;;0.40;;
9240;SDS011;53485;49.326;9.738;2023-04-15T14:52:46;0.40;;;0.40;;
9240;SDS011;53485;49.326;9.738;2023-04-15T14:55:12;0.70;;;0.60;;
9240;SDS011;53485;49.326;9.738;2023-04-15T14:57:39;1.70;;;0.50;;
9240;SDS011;53485;49.326;9.738;2023-04-15T15:00:05;0.73;;;0.50;;
9240;SDS011;53485;49.326;9.738;2023-04-15T15:02:32;0.57;;;0.57;;
9240;SDS011;53485;49.326;9.738;2023-04-15T15:04:59;0.90;;;0.60;;
9240;SDS011;53485;49.326;9.738;2023-04-15T15:07:25;0.50;;;0.50;;